sensor_id;sensor_type;location;lat;lon;timestamp;temperature;humidity
10873;DHT22;34586;53.616;10.032;2023-04-01T00:00:18;10.90;99.90
10873;DHT22;34586;53.616;10.032;2023-04-01T00:02:44;10.90;99.90
10873;DHT22;34586;53.616;10.032;2023-04-01T00:05:10;10.80;99.90
10873;DHT22;34586;53.616;10.032;2023-04-01T00:07:37;10.90;99.90
10873;DHT22;34586;53.616;10.032;2023-04-01T00:10:06;10.80;99.90
10873;DHT22;34586;53.616;10.032;2023-04-01T00:12:33;10.90;99.90
10873;DHT22;34586;53.616;10.032;2023-04-01T00:15:00;10.90;99.90
10873;DHT22;34586;53.616;10.032;2023-04-01T00:17:27;10.90;99.90
10873;DHT22;34586;53.616;10.032;2023-04-01T00:19:56;10.80;99.90
10873;DHT22;34586;53.616;10.032;2023-04-01T00:22:23;10.80;99.90
10873;DHT22;34586;53.616;10.032;2023-04-01T00:24:49;10.80;99.90
10873;DHT22;34586;53.616;10.032;2023-04-01T00:27:16;10.80;99.90
10873;DHT22;34586;53.616;10.032;2023-04-01T00:29:42;10.80;99.90
10873;DHT22;34586;53.616;10.032;2023-04-01T00:32:08;10.80;99.90
10873;DHT22;34586;53.616;10.032;2023-04-01T00:34:34;10.80;99.90
10873;DHT22;34586;53.616;10.032;2023-04-01T00:36:59;10.80;99.90
10873;DHT22;34586;53.616;10.032;2023-04-01T00:39:29;10.80;99.90
10873;DHT22;34586;53.616;10.032;2023-04-01T00:41:54;10.80;99.90
10873;DHT22;34586;53.616;10.032;2023-04-01T00:44:28;10.80;99.90
10873;DHT22;34586;53.616;10.032;2023-04-01T00:46:54;10.80;99.90
10873;DHT22;34586;53.616;10.032;2023-04-01T00:49:23;10.80;99.90
10873;DHT22;34586;53.616;10.032;2023-04-01T00:51:52;10.70;99.90
10873;DHT22;34586;53.616;10.032;2023-04-01T00:54:19;10.80;99.90
10873;DHT22;34586;53.616;10.032;2023-04-01T00:57:00;10.70;99.90
10873;DHT22;34586;53.616;10.032;2023-04-01T00:59:30;10.70;99.90
10873;DHT22;34586;53.616;10.032;2023-04-01T01:01:57;10.70;99.90
10873;DHT22;34586;53.616;10.032;2023-04-01T01:04:41;10.70;99.90
10873;DHT22;34586;53.616;10.032;2023-04-01T01:07:31;10.70;99.90
10873;DHT22;34586;53.616;10.032;2023-04-01T01:10:24;10.70;99.90
10873;DHT22;34586;53.616;10.032;2023-04-01T01:22:06;10.60;99.90
10873;DHT22;34586;53.616;10.032;2023-04-01T01:27:15;10.60;99.90
10873;DHT22;34586;53.616;10.032;2023-04-01T01:35:49;10.50;99.90
10873;DHT22;34586;53.616;10.032;2023-04-01T01:38:22;10.50;99.90
10873;DHT22;34586;53.616;10.032;2023-04-01T01:40:50;10.50;99.90
10873;DHT22;34586;53.616;10.032;2023-04-01T01:43:22;10.50;99.90
10873;DHT22;34586;53.616;10.032;2023-04-01T01:45:52;10.60;99.90
10873;DHT22;34586;53.616;10.032;2023-04-01T01:48:20;10.60;99.90
10873;DHT22;34586;53.616;10.032;2023-04-01T01:50:46;10.60;99.90
10873;DHT22;34586;53.616;10.032;2023-04-01T01:53:13;10.60;99.90
10873;DHT22;34586;53.616;10.032;2023-04-01T01:55:42;10.50;99.90
10873;DHT22;34586;53.616;10.032;2023-04-01T02:00:37;10.60;99.90
10873;DHT22;34586;53.616;10.032;2023-04-01T02:03:04;10.50;99.90
10873;DHT22;34586;53.616;10.032;2023-04-01T02:05:32;10.50;99.90
10873;DHT22;34586;53.616;10.032;2023-04-01T02:08:06;10.50;99.90
10873;DHT22;34586;53.616;10.032;2023-04-01T02:10:36;10.60;99.90
10873;DHT22;34586;53.616;10.032;2023-04-01T02:13:08;10.60;99.90
10873;DHT22;34586;53.616;10.032;2023-04-01T02:15:40;10.60;99.90
10873;DHT22;34586;53.616;10.032;2023-04-01T02:18:07;10.50;99.90
10873;DHT22;34586;53.616;10.032;2023-04-01T02:20:35;10.50;99.90
10873;DHT22;34586;53.616;10.032;2023-04-01T02:23:02;10.60;99.90
10873;DHT22;34586;53.616;10.032;2023-04-01T02:25:35;10.50;99.90
10873;DHT22;34586;53.616;10.032;2023-04-01T02:28:04;10.50;99.90
10873;DHT22;34586;53.616;10.032;2023-04-01T02:30:34;10.50;99.90
10873;DHT22;34586;53.616;10.032;2023-04-01T02:33:01;10.50;99.90
10873;DHT22;34586;53.616;10.032;2023-04-01T02:35:28;10.50;99.90
10873;DHT22;34586;53.616;10.032;2023-04-01T02:37:55;10.50;99.90
10873;DHT22;34586;53.616;10.032;2023-04-01T02:40:21;10.50;99.90
10873;DHT22;34586;53.616;10.032;2023-04-01T02:42:46;10.50;99.90
10873;DHT22;34586;53.616;10.032;2023-04-01T02:45:13;10.50;99.90
10873;DHT22;34586;53.616;10.032;2023-04-01T02:47:39;10.50;99.90
10873;DHT22;34586;53.616;10.032;2023-04-01T02:50:05;10.40;99.90
10873;DHT22;34586;53.616;10.032;2023-04-01T02:52:31;10.50;99.90
10873;DHT22;34586;53.616;10.032;2023-04-01T02:54:58;10.50;99.90
10873;DHT22;34586;53.616;10.032;2023-04-01T02:57:24;10.40;99.90
10873;DHT22;34586;53.616;10.032;2023-04-01T02:59:50;10.50;99.90
10873;DHT22;34586;53.616;10.032;2023-04-01T03:02:16;10.40;99.90
10873;DHT22;34586;53.616;10.032;2023-04-01T03:04:42;10.40;99.90
10873;DHT22;34586;53.616;10.032;2023-04-01T03:07:08;10.40;99.90
10873;DHT22;34586;53.616;10.032;2023-04-01T03:09:36;10.50;99.90
10873;DHT22;34586;53.616;10.032;2023-04-01T03:12:03;10.50;99.90
10873;DHT22;34586;53.616;10.032;2023-04-01T03:14:28;10.40;99.90
10873;DHT22;34586;53.616;10.032;2023-04-01T03:16:54;10.40;99.90
10873;DHT22;34586;53.616;10.032;2023-04-01T03:19:20;10.50;99.90
10873;DHT22;34586;53.616;10.032;2023-04-01T03:21:46;10.40;99.90
10873;DHT22;34586;53.616;10.032;2023-04-01T03:24:12;10.40;99.90
10873;DHT22;34586;53.616;10.032;2023-04-01T03:26:38;10.40;99.90
10873;DHT22;34586;53.616;10.032;2023-04-01T03:29:03;10.50;99.90
10873;DHT22;34586;53.616;10.032;2023-04-01T03:31:29;10.40;99.90
10873;DHT22;34586;53.616;10.032;2023-04-01T03:33:54;10.40;99.90
10873;DHT22;34586;53.616;10.032;2023-04-01T03:36:21;10.40;99.90
10873;DHT22;34586;53.616;10.032;2023-04-01T03:38:47;10.40;99.90
10873;DHT22;34586;53.616;10.032;2023-04-01T03:41:17;10.30;99.90
10873;DHT22;34586;53.616;10.032;2023-04-01T03:43:44;10.40;99.90
10873;DHT22;34586;53.616;10.032;2023-04-01T03:46:10;10.30;99.90
10873;DHT22;34586;53.616;10.032;2023-04-01T03:48:35;10.30;99.90
10873;DHT22;34586;53.616;10.032;2023-04-01T03:51:01;10.30;99.90
10873;DHT22;34586;53.616;10.032;2023-04-01T03:53:31;10.30;99.90
10873;DHT22;34586;53.616;10.032;2023-04-01T03:55:57;10.40;99.90
10873;DHT22;34586;53.616;10.032;2023-04-01T03:58:22;10.40;99.90
10873;DHT22;34586;53.616;10.032;2023-04-01T04:00:48;10.30;99.90
10873;DHT22;34586;53.616;10.032;2023-04-01T04:03:13;10.40;99.90
10873;DHT22;34586;53.616;10.032;2023-04-01T04:05:47;10.40;99.90
10873;DHT22;34586;53.616;10.032;2023-04-01T04:08:13;10.40;99.90
10873;DHT22;34586;53.616;10.032;2023-04-01T04:10:38;10.40;99.90
10873;DHT22;34586;53.616;10.032;2023-04-01T04:13:05;10.40;99.90
10873;DHT22;34586;53.616;10.032;2023-04-01T04:15:30;10.40;99.90
10873;DHT22;34586;53.616;10.032;2023-04-01T04:17:57;10.30;99.90
10873;DHT22;34586;53.616;10.032;2023-04-01T04:20:23;10.30;99.90
10873;DHT22;34586;53.616;10.032;2023-04-01T04:22:49;10.30;99.90
10873;DHT22;34586;53.616;10.032;2023-04-01T04:25:15;10.30;99.90
10873;DHT22;34586;53.616;10.032;2023-04-01T04:27:41;10.30;99.90
10873;DHT22;34586;53.616;10.032;2023-04-01T04:30:07;10.30;99.90
10873;DHT22;34586;53.616;10.032;2023-04-01T04:32:32;10.30;99.90
10873;DHT22;34586;53.616;10.032;2023-04-01T04:34:58;10.30;99.90
10873;DHT22;34586;53.616;10.032;2023-04-01T04:37:24;10.20;99.90
10873;DHT22;34586;53.616;10.032;2023-04-01T04:39:51;10.20;99.90
10873;DHT22;34586;53.616;10.032;2023-04-01T04:42:17;10.20;99.90
10873;DHT22;34586;53.616;10.032;2023-04-01T04:44:43;10.30;99.90
10873;DHT22;34586;53.616;10.032;2023-04-01T04:47:09;10.30;99.90
10873;DHT22;34586;53.616;10.032;2023-04-01T04:49:34;10.30;99.90
10873;DHT22;34586;53.616;10.032;2023-04-01T04:52:00;10.30;99.90
10873;DHT22;34586;53.616;10.032;2023-04-01T04:54:26;10.30;99.90
10873;DHT22;34586;53.616;10.032;2023-04-01T04:56:52;10.30;99.90
10873;DHT22;34586;53.616;10.032;2023-04-01T04:59:18;10.30;99.90
10873;DHT22;34586;53.616;10.032;2023-04-01T05:01:43;10.20;99.90
10873;DHT22;34586;53.616;10.032;2023-04-01T05:04:09;10.30;99.90
10873;DHT22;34586;53.616;10.032;2023-04-01T05:06:35;10.20;99.90
10873;DHT22;34586;53.616;10.032;2023-04-01T05:09:02;10.20;99.90
10873;DHT22;34586;53.616;10.032;2023-04-01T05:11:28;10.20;99.90
10873;DHT22;34586;53.616;10.032;2023-04-01T05:13:53;10.10;99.90
10873;DHT22;34586;53.616;10.032;2023-04-01T05:16:20;10.00;99.90
10873;DHT22;34586;53.616;10.032;2023-04-01T05:18:46;9.90;99.90
10873;DHT22;34586;53.616;10.032;2023-04-01T05:21:13;9.70;99.90
10873;DHT22;34586;53.616;10.032;2023-04-01T05:23:40;9.70;99.90
10873;DHT22;34586;53.616;10.032;2023-04-01T05:26:07;9.50;99.90
10873;DHT22;34586;53.616;10.032;2023-04-01T05:28:33;9.30;99.90
10873;DHT22;34586;53.616;10.032;2023-04-01T05:30:59;9.30;99.90
10873;DHT22;34586;53.616;10.032;2023-04-01T05:33:27;9.20;99.90
10873;DHT22;34586;53.616;10.032;2023-04-01T05:35:54;9.20;99.90
10873;DHT22;34586;53.616;10.032;2023-04-01T05:38:19;9.10;99.90
10873;DHT22;34586;53.616;10.032;2023-04-01T05:40:45;9.10;99.90
10873;DHT22;34586;53.616;10.032;2023-04-01T05:43:12;9.10;99.90
10873;DHT22;34586;53.616;10.032;2023-04-01T05:45:38;9.00;99.90
10873;DHT22;34586;53.616;10.032;2023-04-01T05:48:04;9.00;99.90
10873;DHT22;34586;53.616;10.032;2023-04-01T05:50:30;8.90;99.90
10873;DHT22;34586;53.616;10.032;2023-04-01T05:52:55;8.90;99.90
10873;DHT22;34586;53.616;10.032;2023-04-01T05:55:21;8.90;99.90
10873;DHT22;34586;53.616;10.032;2023-04-01T05:57:47;8.90;99.90
10873;DHT22;34586;53.616;10.032;2023-04-01T06:00:15;8.80;99.90
10873;DHT22;34586;53.616;10.032;2023-04-01T06:02:41;8.80;99.90
10873;DHT22;34586;53.616;10.032;2023-04-01T06:05:21;8.70;99.90
10873;DHT22;34586;53.616;10.032;2023-04-01T06:07:47;8.70;99.90
10873;DHT22;34586;53.616;10.032;2023-04-01T06:10:18;8.60;99.90
10873;DHT22;34586;53.616;10.032;2023-04-01T06:12:56;8.60;99.90
10873;DHT22;34586;53.616;10.032;2023-04-01T06:15:36;8.50;99.90
10873;DHT22;34586;53.616;10.032;2023-04-01T06:18:12;8.50;99.90
10873;DHT22;34586;53.616;10.032;2023-04-01T06:21:02;8.40;99.90
10873;DHT22;34586;53.616;10.032;2023-04-01T06:37:43;8.20;99.90
10873;DHT22;34586;53.616;10.032;2023-04-01T06:43:45;8.20;99.90
10873;DHT22;34586;53.616;10.032;2023-04-01T06:46:37;8.20;99.90
10873;DHT22;34586;53.616;10.032;2023-04-01T06:54:55;8.20;99.90
10873;DHT22;34586;53.616;10.032;2023-04-01T06:57:31;8.10;99.90
10873;DHT22;34586;53.616;10.032;2023-04-01T07:00:00;8.10;99.90
10873;DHT22;34586;53.616;10.032;2023-04-01T07:02:43;8.10;99.90
10873;DHT22;34586;53.616;10.032;2023-04-01T07:05:11;8.20;99.90
10873;DHT22;34586;53.616;10.032;2023-04-01T07:07:43;8.10;99.90
10873;DHT22;34586;53.616;10.032;2023-04-01T07:10:30;8.10;99.90
10873;DHT22;34586;53.616;10.032;2023-04-01T07:13:00;8.10;99.90
10873;DHT22;34586;53.616;10.032;2023-04-01T07:15:40;8.00;99.90
10873;DHT22;34586;53.616;10.032;2023-04-01T07:18:19;8.10;99.90
10873;DHT22;34586;53.616;10.032;2023-04-01T07:20:49;8.20;99.90
10873;DHT22;34586;53.616;10.032;2023-04-01T07:23:28;8.20;99.90
10873;DHT22;34586;53.616;10.032;2023-04-01T07:26:15;8.00;99.90
10873;DHT22;34586;53.616;10.032;2023-04-01T07:28:41;8.00;99.90
10873;DHT22;34586;53.616;10.032;2023-04-01T07:44:54;8.00;99.90
10873;DHT22;34586;53.616;10.032;2023-04-01T07:53:21;8.00;99.90
10873;DHT22;34586;53.616;10.032;2023-04-01T07:56:10;8.00;99.90
10873;DHT22;34586;53.616;10.032;2023-04-01T08:01:26;8.00;99.90
10873;DHT22;34586;53.616;10.032;2023-04-01T08:07:27;8.00;99.90
10873;DHT22;34586;53.616;10.032;2023-04-01T08:12:34;8.20;99.90
10873;DHT22;34586;53.616;10.032;2023-04-01T08:15:21;8.20;99.90
10873;DHT22;34586;53.616;10.032;2023-04-01T08:18:11;8.20;99.90
10873;DHT22;34586;53.616;10.032;2023-04-01T08:20:51;8.30;99.90
10873;DHT22;34586;53.616;10.032;2023-04-01T08:23:24;8.20;99.90
10873;DHT22;34586;53.616;10.032;2023-04-01T08:26:01;8.20;99.90
10873;DHT22;34586;53.616;10.032;2023-04-01T08:31:12;8.10;99.90
10873;DHT22;34586;53.616;10.032;2023-04-01T08:33:40;8.10;99.90
10873;DHT22;34586;53.616;10.032;2023-04-01T08:38:54;8.30;99.90
10873;DHT22;34586;53.616;10.032;2023-04-01T08:41:47;8.30;99.90
10873;DHT22;34586;53.616;10.032;2023-04-01T08:47:13;8.20;99.90
10873;DHT22;34586;53.616;10.032;2023-04-01T08:53:14;8.20;99.90
10873;DHT22;34586;53.616;10.032;2023-04-01T08:55:56;8.30;99.90
10873;DHT22;34586;53.616;10.032;2023-04-01T09:01:55;8.30;99.90
10873;DHT22;34586;53.616;10.032;2023-04-01T09:10:11;8.40;99.90
10873;DHT22;34586;53.616;10.032;2023-04-01T09:21:37;8.30;99.90
10873;DHT22;34586;53.616;10.032;2023-04-01T09:32:40;8.60;99.90
10873;DHT22;34586;53.616;10.032;2023-04-01T09:38:03;8.50;99.90
10873;DHT22;34586;53.616;10.032;2023-04-01T09:40:55;8.50;99.90
10873;DHT22;34586;53.616;10.032;2023-04-01T09:44:11;8.30;99.90
10873;DHT22;34586;53.616;10.032;2023-04-01T09:51:55;8.40;99.90
10873;DHT22;34586;53.616;10.032;2023-04-01T09:54:32;8.40;99.90
10873;DHT22;34586;53.616;10.032;2023-04-01T09:57:35;8.50;99.90
10873;DHT22;34586;53.616;10.032;2023-04-01T10:00:22;8.30;99.90
10873;DHT22;34586;53.616;10.032;2023-04-01T10:03:34;8.40;99.90
10873;DHT22;34586;53.616;10.032;2023-04-01T10:09:12;8.60;99.90
10873;DHT22;34586;53.616;10.032;2023-04-01T10:31:38;8.40;99.90
10873;DHT22;34586;53.616;10.032;2023-04-01T10:39:48;8.80;99.90
10873;DHT22;34586;53.616;10.032;2023-04-01T10:56:34;9.30;99.90
10873;DHT22;34586;53.616;10.032;2023-04-01T11:21:56;9.20;99.90
10873;DHT22;34586;53.616;10.032;2023-04-01T11:27:13;9.00;99.90
10873;DHT22;34586;53.616;10.032;2023-04-01T11:32:44;9.10;99.90
10873;DHT22;34586;53.616;10.032;2023-04-01T11:35:42;8.90;99.90
10873;DHT22;34586;53.616;10.032;2023-04-01T11:46:54;8.80;99.90
10873;DHT22;34586;53.616;10.032;2023-04-01T11:49:29;8.90;99.90
10873;DHT22;34586;53.616;10.032;2023-04-01T11:52:10;8.80;99.90
10873;DHT22;34586;53.616;10.032;2023-04-01T12:08:46;8.20;99.90
10873;DHT22;34586;53.616;10.032;2023-04-01T12:14:01;8.10;99.90
10873;DHT22;34586;53.616;10.032;2023-04-01T12:19:43;8.00;99.90
10873;DHT22;34586;53.616;10.032;2023-04-01T12:30:44;8.00;99.90
10873;DHT22;34586;53.616;10.032;2023-04-01T12:41:32;8.00;99.90
10873;DHT22;34586;53.616;10.032;2023-04-01T12:44:47;8.00;99.90
10873;DHT22;34586;53.616;10.032;2023-04-01T12:52:40;8.00;99.90
10873;DHT22;34586;53.616;10.032;2023-04-01T13:01:44;8.00;99.90
10873;DHT22;34586;53.616;10.032;2023-04-01T13:04:51;8.20;99.90
10873;DHT22;34586;53.616;10.032;2023-04-01T13:13:06;8.00;99.90
10873;DHT22;34586;53.616;10.032;2023-04-01T13:18:52;8.10;99.90
10873;DHT22;34586;53.616;10.032;2023-04-01T13:21:28;7.90;99.90
10873;DHT22;34586;53.616;10.032;2023-04-01T13:27:14;7.80;99.90
10873;DHT22;34586;53.616;10.032;2023-04-01T13:30:35;7.80;99.90
10873;DHT22;34586;53.616;10.032;2023-04-01T13:43:24;7.70;99.90
10873;DHT22;34586;53.616;10.032;2023-04-01T14:03:27;7.70;99.90
10873;DHT22;34586;53.616;10.032;2023-04-01T14:06:09;7.80;99.90
10873;DHT22;34586;53.616;10.032;2023-04-01T14:11:53;7.70;99.90
10873;DHT22;34586;53.616;10.032;2023-04-01T14:15:15;7.50;99.90
10873;DHT22;34586;53.616;10.032;2023-04-01T14:17:31;7.40;99.90
10873;DHT22;34586;53.616;10.032;2023-04-01T14:28:25;7.50;99.90
10873;DHT22;34586;53.616;10.032;2023-04-01T14:31:04;7.50;99.90
10873;DHT22;34586;53.616;10.032;2023-04-01T14:50:31;7.10;99.90
10873;DHT22;34586;53.616;10.032;2023-04-01T14:53:23;7.00;99.90
10873;DHT22;34586;53.616;10.032;2023-04-01T14:56:01;7.10;99.90
10873;DHT22;34586;53.616;10.032;2023-04-01T14:58:49;7.00;99.90
10873;DHT22;34586;53.616;10.032;2023-04-01T15:01:43;6.90;99.90
10873;DHT22;34586;53.616;10.032;2023-04-01T15:09:38;6.90;99.90
10873;DHT22;34586;53.616;10.032;2023-04-01T15:15:03;6.90;99.90
10873;DHT22;34586;53.616;10.032;2023-04-01T15:18:03;7.00;99.90
10873;DHT22;34586;53.616;10.032;2023-04-01T15:31:55;6.60;99.90
10873;DHT22;34586;53.616;10.032;2023-04-01T15:43:45;6.50;99.90
10873;DHT22;34586;53.616;10.032;2023-04-01T15:46:47;6.50;99.90
10873;DHT22;34586;53.616;10.032;2023-04-01T15:49:41;6.60;99.90
10873;DHT22;34586;53.616;10.032;2023-04-01T16:10:19;6.40;99.90
10873;DHT22;34586;53.616;10.032;2023-04-01T16:16:16;6.40;99.90
10873;DHT22;34586;53.616;10.032;2023-04-01T16:21:49;6.30;99.90
10873;DHT22;34586;53.616;10.032;2023-04-01T16:24:35;6.30;99.90
10873;DHT22;34586;53.616;10.032;2023-04-01T16:27:27;6.30;99.90
10873;DHT22;34586;53.616;10.032;2023-04-01T16:30:22;6.30;99.90
10873;DHT22;34586;53.616;10.032;2023-04-01T16:38:24;6.20;99.90
10873;DHT22;34586;53.616;10.032;2023-04-01T16:41:17;6.20;99.90
10873;DHT22;34586;53.616;10.032;2023-04-01T16:46:35;6.10;99.90
10873;DHT22;34586;53.616;10.032;2023-04-01T16:54:36;5.90;99.90
10873;DHT22;34586;53.616;10.032;2023-04-01T16:57:30;6.00;99.90
10873;DHT22;34586;53.616;10.032;2023-04-01T17:00:29;6.00;99.90
10873;DHT22;34586;53.616;10.032;2023-04-01T17:03:33;5.90;99.90
10873;DHT22;34586;53.616;10.032;2023-04-01T17:12:03;5.80;99.90
10873;DHT22;34586;53.616;10.032;2023-04-01T17:14:36;5.80;99.90
10873;DHT22;34586;53.616;10.032;2023-04-01T17:20:12;5.90;99.90
10873;DHT22;34586;53.616;10.032;2023-04-01T17:23:00;5.80;99.90
10873;DHT22;34586;53.616;10.032;2023-04-01T17:50:14;5.80;99.90
10873;DHT22;34586;53.616;10.032;2023-04-01T17:56:17;5.60;99.90
10873;DHT22;34586;53.616;10.032;2023-04-01T17:58:56;5.60;99.90
10873;DHT22;34586;53.616;10.032;2023-04-01T18:01:26;5.60;99.90
10873;DHT22;34586;53.616;10.032;2023-04-01T18:18:26;5.70;99.90
10873;DHT22;34586;53.616;10.032;2023-04-01T18:23:45;5.70;99.90
10873;DHT22;34586;53.616;10.032;2023-04-01T18:26:20;5.70;99.90
10873;DHT22;34586;53.616;10.032;2023-04-01T18:28:56;5.70;99.90
10873;DHT22;34586;53.616;10.032;2023-04-01T18:31:35;5.70;99.90
10873;DHT22;34586;53.616;10.032;2023-04-01T18:35:12;5.60;99.90
10873;DHT22;34586;53.616;10.032;2023-04-01T18:37:31;5.70;99.90
10873;DHT22;34586;53.616;10.032;2023-04-01T18:40:20;5.90;99.90
10873;DHT22;34586;53.616;10.032;2023-04-01T18:43:10;5.70;99.90
10873;DHT22;34586;53.616;10.032;2023-04-01T18:45:49;5.70;99.90
10873;DHT22;34586;53.616;10.032;2023-04-01T18:48:40;5.60;99.90
10873;DHT22;34586;53.616;10.032;2023-04-01T18:54:47;5.50;99.90
10873;DHT22;34586;53.616;10.032;2023-04-01T18:56:48;5.40;99.90
10873;DHT22;34586;53.616;10.032;2023-04-01T19:02:24;5.20;99.90
10873;DHT22;34586;53.616;10.032;2023-04-01T19:07:49;5.10;99.90
10873;DHT22;34586;53.616;10.032;2023-04-01T19:11:30;5.20;99.90
10873;DHT22;34586;53.616;10.032;2023-04-01T19:20:09;5.00;99.90
10873;DHT22;34586;53.616;10.032;2023-04-01T19:25:56;5.10;99.90
10873;DHT22;34586;53.616;10.032;2023-04-01T19:36:24;5.00;99.90
10873;DHT22;34586;53.616;10.032;2023-04-01T19:39:16;5.00;99.90
10873;DHT22;34586;53.616;10.032;2023-04-01T19:42:01;5.10;99.90
10873;DHT22;34586;53.616;10.032;2023-04-01T19:44:41;5.00;99.90
10873;DHT22;34586;53.616;10.032;2023-04-01T19:47:44;4.70;99.90
10873;DHT22;34586;53.616;10.032;2023-04-01T19:53:28;4.50;99.90
10873;DHT22;34586;53.616;10.032;2023-04-01T19:56:19;4.40;99.90
10873;DHT22;34586;53.616;10.032;2023-04-01T20:02:19;4.30;99.90
10873;DHT22;34586;53.616;10.032;2023-04-01T20:04:52;4.40;99.90
10873;DHT22;34586;53.616;10.032;2023-04-01T20:10:09;4.40;99.90
10873;DHT22;34586;53.616;10.032;2023-04-01T20:15:55;4.30;99.90
10873;DHT22;34586;53.616;10.032;2023-04-01T20:18:55;4.20;99.90
10873;DHT22;34586;53.616;10.032;2023-04-01T20:21:41;4.20;99.90
10873;DHT22;34586;53.616;10.032;2023-04-01T20:26:49;4.40;99.90
10873;DHT22;34586;53.616;10.032;2023-04-01T20:29:34;4.30;99.90
10873;DHT22;34586;53.616;10.032;2023-04-01T20:37:40;4.00;99.90
10873;DHT22;34586;53.616;10.032;2023-04-01T20:40:28;4.00;99.90
10873;DHT22;34586;53.616;10.032;2023-04-01T20:49:04;3.70;99.90
10873;DHT22;34586;53.616;10.032;2023-04-01T20:51:38;3.70;99.90
10873;DHT22;34586;53.616;10.032;2023-04-01T20:54:34;3.60;99.90
10873;DHT22;34586;53.616;10.032;2023-04-01T20:57:34;3.60;99.90
10873;DHT22;34586;53.616;10.032;2023-04-01T21:02:52;3.50;99.90
10873;DHT22;34586;53.616;10.032;2023-04-01T21:11:33;3.50;99.90
10873;DHT22;34586;53.616;10.032;2023-04-01T21:23:46;3.40;99.90
10873;DHT22;34586;53.616;10.032;2023-04-01T21:45:43;3.10;99.90
10873;DHT22;34586;53.616;10.032;2023-04-01T22:03:29;3.00;99.90
10873;DHT22;34586;53.616;10.032;2023-04-01T22:12:09;2.90;99.90
10873;DHT22;34586;53.616;10.032;2023-04-01T22:14:52;3.00;99.90
10873;DHT22;34586;53.616;10.032;2023-04-01T22:20:28;2.90;99.90
10873;DHT22;34586;53.616;10.032;2023-04-01T22:28:21;2.80;99.90
10873;DHT22;34586;53.616;10.032;2023-04-01T22:30:52;2.80;99.90
10873;DHT22;34586;53.616;10.032;2023-04-01T22:33:51;2.80;99.90
10873;DHT22;34586;53.616;10.032;2023-04-01T22:49:53;2.70;99.90
10873;DHT22;34586;53.616;10.032;2023-04-01T22:52:31;2.70;99.90
10873;DHT22;34586;53.616;10.032;2023-04-01T22:57:55;2.70;99.90
10873;DHT22;34586;53.616;10.032;2023-04-01T23:00:32;2.60;99.90
10873;DHT22;34586;53.616;10.032;2023-04-01T23:05:45;2.70;99.90
10873;DHT22;34586;53.616;10.032;2023-04-01T23:10:58;2.60;99.90
10873;DHT22;34586;53.616;10.032;2023-04-01T23:16:00;2.50;99.90
10873;DHT22;34586;53.616;10.032;2023-04-01T23:26:35;2.50;99.90
10873;DHT22;34586;53.616;10.032;2023-04-01T23:29:04;2.50;99.90
10873;DHT22;34586;53.616;10.032;2023-04-01T23:31:38;2.50;99.90
10873;DHT22;34586;53.616;10.032;2023-04-01T23:36:46;2.40;99.90
10873;DHT22;34586;53.616;10.032;2023-04-01T23:39:41;2.40;99.90
10873;DHT22;34586;53.616;10.032;2023-04-01T23:42:32;2.50;99.90
10873;DHT22;34586;53.616;10.032;2023-04-01T23:45:16;2.50;99.90
10873;DHT22;34586;53.616;10.032;2023-04-01T23:47:45;2.50;99.90
10873;DHT22;34586;53.616;10.032;2023-04-01T23:50:22;2.50;99.90
10873;DHT22;34586;53.616;10.032;2023-04-01T23:53:17;2.50;99.90
10873;DHT22;34586;53.616;10.032;2023-04-01T23:55:46;2.50;99.90
10873;DHT22;34586;53.616;10.032;2023-04-01T23:58:26;2.40;99.90
